Zurich, MT

3:12 AM MST on November 15, 2019 (GMT -0700)
Hogeland | | Change Station
Active Advisory: Dense Fog Advisory

Elev 3386 ft 48.83 °N, 108.79 °W | Updated 1 minute ago

Partly Cloudy
Partly Cloudy
33.1 °F
Feels Like 27 °F
N
6.9
Wind Variable Wind from SW
Gusts 8.1 mph

Today
High -- | Low -- °F
--% Chance of Precip.
Yesterday
High -- | Low -- °F
Precip. -- in
Pressure 29.93 in
Visibility 6.0 miles
Clouds Few 200 ft
Windchill 27 °F
Dew Point 27 °F
Humidity 79%
Rainfall 0.00 in
Snow Depth Not available.
7:24 AM 4:36 PM
Waning Gibbous, 92% visible
SPECI KHVR 151010Z AUTO 08003KT 6SM BR FEW002 M06/M06 A2993 RMK AO2 T10561061 $
Pressure 29.93 in
Visibility 6.0 miles
Clouds Few 200 ft
Windchill 27 °F
Dew Point 27 °F
Humidity 79%
Rainfall 0.00 in
Snow Depth Not available.
7:24 AM 4:36 PM
Waning Gibbous, 92% visible
SPECI KHVR 151010Z AUTO 08003KT 6SM BR FEW002 M06/M06 A2993 RMK AO2 T10561061 $

Get Your Daily Forecast Email!

Thanks for signing up!

Be on the lookout for a verification email in your inbox.

You'll start receiving severe weather alerts in your inbox..

×

10-Day Weather Forecast

Almanac

Astronomy

Nov. 15, 2019 Rise Set
Actual Time
Civil Twilight
Nautical Twilight
Astronomical Twilight
Moon
Length of Visible Light
Length of Day
Tomorrow will be .
, % of the Moon is Illuminated

Today's Extremes

State Highs State Lows

Community

WunderPhotos

Category 6

Welcome to Category 6. This is the collective home for Weather Underground's featured writeups by Dr. Jeff Masters (right), Bob Henson (left), Chris Burt, and other regular contributors.

Nearby

Air Quality

  Air Quality AQ Index Pollutant
Not available.

Snow Depth

Station Depth Elevation

Earthquake Activity

City Distance Mag. Time & Date
Minimum magnitude displayed is 2.5.

Coastal Water Temperatures

Place Temperature

Stations

Nearby Weather Stations

Station Location Temp. Windchill Dew Point Humidity Wind Precip. Elev Updated Type
                   

Watches & Warnings

Dense Fog Advisory
Issued: 3:01 AM MST Nov. 15, 2019 – National Weather Service

... Dense fog advisory in effect until 11 am MST this morning...

* what... visibility less than one half mile in dense fog.

* Where... hill and Blaine counties, mainly along and near the milk
river. This includes the town of Chinook and Havre.

* When... until 11 am MST this morning.

* Impacts... hazardous driving conditions due to low visibility.
With temperatures below freezing, fog may freeze on area roads
and bridges creating some slick conditions.

* Additional details... these conditions may impact portions of US
Highway 2, US Highway 87, and Montana Highway 66 during the
morning commute.

Precautionary/preparedness actions...

If driving, slow down, use your headlights, and leave plenty of
distance ahead of you.



For more information from the National Weather Service visit
http://weather.Gov/greatfalls